sensor_id;sensor_type;location;lat;lon;timestamp;temperature;humidity
49224;DHT22;35050;51.316;5.994;2023-07-02T00:01:40;18.30;99.90
49224;DHT22;35050;51.316;5.994;2023-07-02T00:04:06;18.40;99.90
49224;DHT22;35050;51.316;5.994;2023-07-02T00:06:34;18.20;99.90
49224;DHT22;35050;51.316;5.994;2023-07-02T00:09:06;18.30;99.90
49224;DHT22;35050;51.316;5.994;2023-07-02T00:11:32;18.20;99.90
49224;DHT22;35050;51.316;5.994;2023-07-02T00:13:58;18.20;99.90
49224;DHT22;35050;51.316;5.994;2023-07-02T00:16:23;18.20;99.90
49224;DHT22;35050;51.316;5.994;2023-07-02T00:18:49;18.00;99.90
49224;DHT22;35050;51.316;5.994;2023-07-02T00:21:18;18.00;99.90
49224;DHT22;35050;51.316;5.994;2023-07-02T00:23:45;18.10;99.90
49224;DHT22;35050;51.316;5.994;2023-07-02T00:26:10;18.10;99.90
49224;DHT22;35050;51.316;5.994;2023-07-02T00:28:36;18.10;99.90
49224;DHT22;35050;51.316;5.994;2023-07-02T00:31:02;18.00;99.90
49224;DHT22;35050;51.316;5.994;2023-07-02T00:33:28;17.90;99.90
49224;DHT22;35050;51.316;5.994;2023-07-02T00:35:54;17.90;99.90
49224;DHT22;35050;51.316;5.994;2023-07-02T00:38:21;17.90;99.90
49224;DHT22;35050;51.316;5.994;2023-07-02T00:40:46;17.90;99.90
49224;DHT22;35050;51.316;5.994;2023-07-02T00:43:12;17.90;99.90
49224;DHT22;35050;51.316;5.994;2023-07-02T00:45:39;17.90;99.90
49224;DHT22;35050;51.316;5.994;2023-07-02T00:48:06;17.80;99.90
49224;DHT22;35050;51.316;5.994;2023-07-02T00:50:31;17.80;99.90
49224;DHT22;35050;51.316;5.994;2023-07-02T00:52:57;17.80;99.90
49224;DHT22;35050;51.316;5.994;2023-07-02T00:55:23;17.80;99.90
49224;DHT22;35050;51.316;5.994;2023-07-02T00:57:49;17.80;99.90
49224;DHT22;35050;51.316;5.994;2023-07-02T01:00:15;17.80;99.90
49224;DHT22;35050;51.316;5.994;2023-07-02T01:02:41;17.80;99.90
49224;DHT22;35050;51.316;5.994;2023-07-02T01:05:16;17.80;99.90
49224;DHT22;35050;51.316;5.994;2023-07-02T01:07:42;17.80;99.90
49224;DHT22;35050;51.316;5.994;2023-07-02T01:10:08;17.80;99.90
49224;DHT22;35050;51.316;5.994;2023-07-02T01:12:35;17.70;99.90
49224;DHT22;35050;51.316;5.994;2023-07-02T01:15:03;17.60;99.90
49224;DHT22;35050;51.316;5.994;2023-07-02T01:17:31;17.60;99.90
49224;DHT22;35050;51.316;5.994;2023-07-02T01:20:06;17.60;99.90
49224;DHT22;35050;51.316;5.994;2023-07-02T01:22:32;17.60;99.90
49224;DHT22;35050;51.316;5.994;2023-07-02T01:24:59;17.60;99.90
49224;DHT22;35050;51.316;5.994;2023-07-02T01:27:28;17.40;99.90
49224;DHT22;35050;51.316;5.994;2023-07-02T01:29:54;17.60;99.90
49224;DHT22;35050;51.316;5.994;2023-07-02T01:32:21;17.60;99.90
49224;DHT22;35050;51.316;5.994;2023-07-02T01:34:47;17.70;99.90
49224;DHT22;35050;51.316;5.994;2023-07-02T01:37:18;17.50;99.90
49224;DHT22;35050;51.316;5.994;2023-07-02T01:39:44;17.60;99.90
49224;DHT22;35050;51.316;5.994;2023-07-02T01:42:12;17.60;99.90
49224;DHT22;35050;51.316;5.994;2023-07-02T01:44:40;17.60;99.90
49224;DHT22;35050;51.316;5.994;2023-07-02T01:47:05;17.60;99.90
49224;DHT22;35050;51.316;5.994;2023-07-02T01:49:31;17.50;99.90
49224;DHT22;35050;51.316;5.994;2023-07-02T01:51:58;17.40;99.90
49224;DHT22;35050;51.316;5.994;2023-07-02T01:54:25;17.40;99.90
49224;DHT22;35050;51.316;5.994;2023-07-02T01:56:57;17.50;99.90
49224;DHT22;35050;51.316;5.994;2023-07-02T01:59:24;17.50;99.90
49224;DHT22;35050;51.316;5.994;2023-07-02T02:01:50;17.50;99.90
49224;DHT22;35050;51.316;5.994;2023-07-02T02:04:15;17.50;99.90
49224;DHT22;35050;51.316;5.994;2023-07-02T02:06:41;17.50;99.90
49224;DHT22;35050;51.316;5.994;2023-07-02T02:09:07;17.50;99.90
49224;DHT22;35050;51.316;5.994;2023-07-02T02:11:41;17.30;99.90
49224;DHT22;35050;51.316;5.994;2023-07-02T02:14:07;17.40;99.90
49224;DHT22;35050;51.316;5.994;2023-07-02T02:16:33;17.30;99.90
49224;DHT22;35050;51.316;5.994;2023-07-02T02:19:01;17.30;99.90
49224;DHT22;35050;51.316;5.994;2023-07-02T02:21:27;17.40;99.90
49224;DHT22;35050;51.316;5.994;2023-07-02T02:23:53;17.50;99.90
49224;DHT22;35050;51.316;5.994;2023-07-02T02:26:19;17.40;99.90
49224;DHT22;35050;51.316;5.994;2023-07-02T02:28:47;17.40;99.90
49224;DHT22;35050;51.316;5.994;2023-07-02T02:31:13;17.40;99.90
49224;DHT22;35050;51.316;5.994;2023-07-02T02:33:39;17.50;99.90
49224;DHT22;35050;51.316;5.994;2023-07-02T02:36:05;17.40;99.90
49224;DHT22;35050;51.316;5.994;2023-07-02T02:38:30;17.50;99.90
49224;DHT22;35050;51.316;5.994;2023-07-02T02:40:56;17.40;99.90
49224;DHT22;35050;51.316;5.994;2023-07-02T02:43:22;17.40;99.90
49224;DHT22;35050;51.316;5.994;2023-07-02T02:45:48;17.40;99.90
49224;DHT22;35050;51.316;5.994;2023-07-02T02:48:13;17.40;99.90
49224;DHT22;35050;51.316;5.994;2023-07-02T02:50:39;17.40;99.90
49224;DHT22;35050;51.316;5.994;2023-07-02T02:53:07;17.40;99.90
49224;DHT22;35050;51.316;5.994;2023-07-02T02:55:32;17.50;99.90
49224;DHT22;35050;51.316;5.994;2023-07-02T02:57:58;17.30;99.90
49224;DHT22;35050;51.316;5.994;2023-07-02T03:00:24;17.30;99.90
49224;DHT22;35050;51.316;5.994;2023-07-02T03:02:50;17.40;99.90
49224;DHT22;35050;51.316;5.994;2023-07-02T03:05:16;17.40;99.90
49224;DHT22;35050;51.316;5.994;2023-07-02T03:07:42;17.20;99.90
49224;DHT22;35050;51.316;5.994;2023-07-02T03:10:08;17.30;99.90
49224;DHT22;35050;51.316;5.994;2023-07-02T03:12:34;17.20;99.90
49224;DHT22;35050;51.316;5.994;2023-07-02T03:14:59;17.30;99.90
49224;DHT22;35050;51.316;5.994;2023-07-02T03:17:25;17.30;99.90
49224;DHT22;35050;51.316;5.994;2023-07-02T03:19:51;17.20;99.90
49224;DHT22;35050;51.316;5.994;2023-07-02T03:22:17;17.10;99.90
49224;DHT22;35050;51.316;5.994;2023-07-02T03:24:43;17.30;99.90
49224;DHT22;35050;51.316;5.994;2023-07-02T03:27:08;17.30;99.90
49224;DHT22;35050;51.316;5.994;2023-07-02T03:29:35;17.30;99.90
49224;DHT22;35050;51.316;5.994;2023-07-02T03:32:01;17.30;99.90
49224;DHT22;35050;51.316;5.994;2023-07-02T03:34:28;17.30;99.90
49224;DHT22;35050;51.316;5.994;2023-07-02T03:36:54;17.40;99.90
49224;DHT22;35050;51.316;5.994;2023-07-02T03:39:19;17.30;99.90
49224;DHT22;35050;51.316;5.994;2023-07-02T03:41:45;17.30;99.90
49224;DHT22;35050;51.316;5.994;2023-07-02T03:44:11;17.30;99.90
49224;DHT22;35050;51.316;5.994;2023-07-02T03:46:37;17.30;99.90
49224;DHT22;35050;51.316;5.994;2023-07-02T03:49:03;17.40;99.90
49224;DHT22;35050;51.316;5.994;2023-07-02T03:51:29;17.30;99.90
49224;DHT22;35050;51.316;5.994;2023-07-02T03:53:55;17.30;99.90
49224;DHT22;35050;51.316;5.994;2023-07-02T03:56:20;17.30;99.90
49224;DHT22;35050;51.316;5.994;2023-07-02T03:58:46;17.30;99.90
49224;DHT22;35050;51.316;5.994;2023-07-02T04:01:12;17.20;99.90
49224;DHT22;35050;51.316;5.994;2023-07-02T04:03:38;17.30;99.90
49224;DHT22;35050;51.316;5.994;2023-07-02T04:06:03;17.30;99.90
49224;DHT22;35050;51.316;5.994;2023-07-02T04:08:32;17.20;99.90
49224;DHT22;35050;51.316;5.994;2023-07-02T04:10:58;17.20;99.90
49224;DHT22;35050;51.316;5.994;2023-07-02T04:13:23;17.10;99.90
49224;DHT22;35050;51.316;5.994;2023-07-02T04:15:49;17.30;99.90
49224;DHT22;35050;51.316;5.994;2023-07-02T04:18:15;17.20;99.90
49224;DHT22;35050;51.316;5.994;2023-07-02T04:20:40;17.20;99.90
49224;DHT22;35050;51.316;5.994;2023-07-02T04:23:06;17.40;99.90
49224;DHT22;35050;51.316;5.994;2023-07-02T04:25:32;17.30;99.90
49224;DHT22;35050;51.316;5.994;2023-07-02T04:27:58;17.30;99.90
49224;DHT22;35050;51.316;5.994;2023-07-02T04:30:25;17.30;99.90
49224;DHT22;35050;51.316;5.994;2023-07-02T04:32:51;17.30;99.90
49224;DHT22;35050;51.316;5.994;2023-07-02T04:35:17;17.30;99.90
49224;DHT22;35050;51.316;5.994;2023-07-02T04:37:43;17.40;99.90
49224;DHT22;35050;51.316;5.994;2023-07-02T04:40:09;17.30;99.90
49224;DHT22;35050;51.316;5.994;2023-07-02T04:42:38;17.40;99.90
49224;DHT22;35050;51.316;5.994;2023-07-02T04:45:06;17.40;99.90
49224;DHT22;35050;51.316;5.994;2023-07-02T04:47:32;17.50;99.90
49224;DHT22;35050;51.316;5.994;2023-07-02T04:49:58;17.40;99.90
49224;DHT22;35050;51.316;5.994;2023-07-02T04:52:24;17.40;99.90
49224;DHT22;35050;51.316;5.994;2023-07-02T04:54:50;17.30;99.90
49224;DHT22;35050;51.316;5.994;2023-07-02T04:57:15;17.40;99.90
49224;DHT22;35050;51.316;5.994;2023-07-02T04:59:42;17.30;99.90
49224;DHT22;35050;51.316;5.994;2023-07-02T05:02:08;17.30;99.90
49224;DHT22;35050;51.316;5.994;2023-07-02T05:04:33;17.40;99.90
49224;DHT22;35050;51.316;5.994;2023-07-02T05:07:03;17.40;99.90
49224;DHT22;35050;51.316;5.994;2023-07-02T05:09:28;17.40;99.90
49224;DHT22;35050;51.316;5.994;2023-07-02T05:11:54;17.50;99.90
49224;DHT22;35050;51.316;5.994;2023-07-02T05:14:20;17.60;99.90
49224;DHT22;35050;51.316;5.994;2023-07-02T05:16:45;17.60;99.90
49224;DHT22;35050;51.316;5.994;2023-07-02T05:19:11;17.50;99.90
49224;DHT22;35050;51.316;5.994;2023-07-02T05:21:37;17.60;99.90
49224;DHT22;35050;51.316;5.994;2023-07-02T05:24:02;17.60;99.90
49224;DHT22;35050;51.316;5.994;2023-07-02T05:26:28;17.60;99.90
49224;DHT22;35050;51.316;5.994;2023-07-02T05:28:54;17.70;99.90
49224;DHT22;35050;51.316;5.994;2023-07-02T05:31:19;17.80;99.90
49224;DHT22;35050;51.316;5.994;2023-07-02T05:33:45;17.90;99.90
49224;DHT22;35050;51.316;5.994;2023-07-02T05:36:11;17.90;99.90
49224;DHT22;35050;51.316;5.994;2023-07-02T05:38:37;17.80;99.90
49224;DHT22;35050;51.316;5.994;2023-07-02T05:41:03;17.80;99.90
49224;DHT22;35050;51.316;5.994;2023-07-02T05:43:29;17.90;99.90
49224;DHT22;35050;51.316;5.994;2023-07-02T05:45:58;17.80;99.90
49224;DHT22;35050;51.316;5.994;2023-07-02T05:48:27;17.90;99.90
49224;DHT22;35050;51.316;5.994;2023-07-02T05:50:53;17.80;99.90
49224;DHT22;35050;51.316;5.994;2023-07-02T05:53:19;17.70;99.90
49224;DHT22;35050;51.316;5.994;2023-07-02T05:55:45;17.90;99.90
49224;DHT22;35050;51.316;5.994;2023-07-02T05:58:10;17.90;99.90
49224;DHT22;35050;51.316;5.994;2023-07-02T06:00:36;17.90;99.90
49224;DHT22;35050;51.316;5.994;2023-07-02T06:03:02;17.90;99.90
49224;DHT22;35050;51.316;5.994;2023-07-02T06:05:28;18.00;99.90
49224;DHT22;35050;51.316;5.994;2023-07-02T06:07:53;18.10;99.90
49224;DHT22;35050;51.316;5.994;2023-07-02T06:10:19;18.30;99.90
49224;DHT22;35050;51.316;5.994;2023-07-02T06:12:45;18.20;99.90
49224;DHT22;35050;51.316;5.994;2023-07-02T06:15:11;18.20;99.90
49224;DHT22;35050;51.316;5.994;2023-07-02T06:17:36;18.20;99.90
49224;DHT22;35050;51.316;5.994;2023-07-02T06:20:03;18.40;99.90
49224;DHT22;35050;51.316;5.994;2023-07-02T06:22:32;18.40;99.90
49224;DHT22;35050;51.316;5.994;2023-07-02T06:24:58;18.30;99.90
49224;DHT22;35050;51.316;5.994;2023-07-02T06:27:23;18.30;99.90
49224;DHT22;35050;51.316;5.994;2023-07-02T06:29:49;18.30;99.90
49224;DHT22;35050;51.316;5.994;2023-07-02T06:32:16;18.60;99.90
49224;DHT22;35050;51.316;5.994;2023-07-02T06:34:42;18.70;99.90
49224;DHT22;35050;51.316;5.994;2023-07-02T06:37:07;18.60;99.90
49224;DHT22;35050;51.316;5.994;2023-07-02T06:39:33;18.70;99.90
49224;DHT22;35050;51.316;5.994;2023-07-02T06:41:58;18.60;99.90
49224;DHT22;35050;51.316;5.994;2023-07-02T06:44:24;18.80;99.90
49224;DHT22;35050;51.316;5.994;2023-07-02T06:46:50;18.60;99.90
49224;DHT22;35050;51.316;5.994;2023-07-02T06:49:15;18.70;99.90
49224;DHT22;35050;51.316;5.994;2023-07-02T06:51:41;18.40;99.90
49224;DHT22;35050;51.316;5.994;2023-07-02T06:54:06;18.50;99.90
49224;DHT22;35050;51.316;5.994;2023-07-02T06:56:32;18.70;99.90
49224;DHT22;35050;51.316;5.994;2023-07-02T06:58:59;18.90;99.90
49224;DHT22;35050;51.316;5.994;2023-07-02T07:01:25;18.90;99.90
49224;DHT22;35050;51.316;5.994;2023-07-02T07:03:51;18.80;99.90
49224;DHT22;35050;51.316;5.994;2023-07-02T07:06:16;18.90;99.90
49224;DHT22;35050;51.316;5.994;2023-07-02T07:08:42;19.10;99.90
49224;DHT22;35050;51.316;5.994;2023-07-02T07:11:08;19.10;99.90
49224;DHT22;35050;51.316;5.994;2023-07-02T07:13:33;19.20;99.90
49224;DHT22;35050;51.316;5.994;2023-07-02T07:15:59;19.10;99.90
49224;DHT22;35050;51.316;5.994;2023-07-02T07:18:25;19.30;99.90
49224;DHT22;35050;51.316;5.994;2023-07-02T07:20:50;19.40;99.90
49224;DHT22;35050;51.316;5.994;2023-07-02T07:23:18;19.30;99.90
49224;DHT22;35050;51.316;5.994;2023-07-02T07:25:44;19.10;99.90
49224;DHT22;35050;51.316;5.994;2023-07-02T07:28:09;19.00;99.90
49224;DHT22;35050;51.316;5.994;2023-07-02T07:30:41;19.20;99.90
49224;DHT22;35050;51.316;5.994;2023-07-02T07:33:07;19.80;99.90
49224;DHT22;35050;51.316;5.994;2023-07-02T07:35:32;19.60;99.90
49224;DHT22;35050;51.316;5.994;2023-07-02T07:37:58;19.50;99.90
49224;DHT22;35050;51.316;5.994;2023-07-02T07:40:24;19.40;99.90
49224;DHT22;35050;51.316;5.994;2023-07-02T07:42:49;19.90;99.90
49224;DHT22;35050;51.316;5.994;2023-07-02T07:45:15;20.20;99.90
49224;DHT22;35050;51.316;5.994;2023-07-02T07:47:40;20.40;99.90
49224;DHT22;35050;51.316;5.994;2023-07-02T07:50:07;20.40;99.90
49224;DHT22;35050;51.316;5.994;2023-07-02T07:52:39;20.10;99.90
49224;DHT22;35050;51.316;5.994;2023-07-02T07:55:06;19.90;99.90
49224;DHT22;35050;51.316;5.994;2023-07-02T07:57:33;19.70;99.90
49224;DHT22;35050;51.316;5.994;2023-07-02T07:59:59;19.90;99.90
49224;DHT22;35050;51.316;5.994;2023-07-02T08:02:25;20.00;99.90
49224;DHT22;35050;51.316;5.994;2023-07-02T08:04:50;19.90;99.90
49224;DHT22;35050;51.316;5.994;2023-07-02T08:07:16;20.30;99.90
49224;DHT22;35050;51.316;5.994;2023-07-02T08:09:41;20.40;99.90
49224;DHT22;35050;51.316;5.994;2023-07-02T08:12:07;20.20;99.90
49224;DHT22;35050;51.316;5.994;2023-07-02T08:14:34;20.50;99.90
49224;DHT22;35050;51.316;5.994;2023-07-02T08:17:00;20.30;99.90
49224;DHT22;35050;51.316;5.994;2023-07-02T08:19:26;20.50;99.90
49224;DHT22;35050;51.316;5.994;2023-07-02T08:21:52;20.40;99.90
49224;DHT22;35050;51.316;5.994;2023-07-02T08:24:17;20.50;99.90
49224;DHT22;35050;51.316;5.994;2023-07-02T08:26:43;20.60;99.90
49224;DHT22;35050;51.316;5.994;2023-07-02T08:29:10;20.80;99.90
49224;DHT22;35050;51.316;5.994;2023-07-02T08:31:36;20.80;99.90
49224;DHT22;35050;51.316;5.994;2023-07-02T08:34:01;20.40;99.90
49224;DHT22;35050;51.316;5.994;2023-07-02T08:36:28;20.00;99.90
49224;DHT22;35050;51.316;5.994;2023-07-02T08:38:53;19.90;99.90
49224;DHT22;35050;51.316;5.994;2023-07-02T08:41:21;19.60;99.90
49224;DHT22;35050;51.316;5.994;2023-07-02T08:43:47;19.60;99.90
49224;DHT22;35050;51.316;5.994;2023-07-02T08:46:15;19.70;99.90
49224;DHT22;35050;51.316;5.994;2023-07-02T08:48:41;19.80;99.90
49224;DHT22;35050;51.316;5.994;2023-07-02T08:51:07;19.90;99.90
49224;DHT22;35050;51.316;5.994;2023-07-02T08:53:33;19.90;99.90
49224;DHT22;35050;51.316;5.994;2023-07-02T08:56:00;20.20;99.90
49224;DHT22;35050;51.316;5.994;2023-07-02T08:58:26;20.30;99.90
49224;DHT22;35050;51.316;5.994;2023-07-02T09:01:11;20.30;99.90
49224;DHT22;35050;51.316;5.994;2023-07-02T09:03:38;20.00;99.90
49224;DHT22;35050;51.316;5.994;2023-07-02T09:06:05;19.90;99.90
49224;DHT22;35050;51.316;5.994;2023-07-02T09:08:30;19.80;99.90
49224;DHT22;35050;51.316;5.994;2023-07-02T09:11:06;19.90;99.90
49224;DHT22;35050;51.316;5.994;2023-07-02T09:13:41;19.90;99.90
49224;DHT22;35050;51.316;5.994;2023-07-02T09:16:06;20.00;99.70
49224;DHT22;35050;51.316;5.994;2023-07-02T09:18:32;20.70;99.90
49224;DHT22;35050;51.316;5.994;2023-07-02T09:20:58;20.50;99.40
49224;DHT22;35050;51.316;5.994;2023-07-02T09:23:33;20.20;99.00
49224;DHT22;35050;51.316;5.994;2023-07-02T09:26:00;20.00;98.50
49224;DHT22;35050;51.316;5.994;2023-07-02T09:28:26;20.00;99.20
49224;DHT22;35050;51.316;5.994;2023-07-02T09:30:52;20.30;99.70
49224;DHT22;35050;51.316;5.994;2023-07-02T09:33:18;20.30;98.70
49224;DHT22;35050;51.316;5.994;2023-07-02T09:35:44;20.40;99.40
49224;DHT22;35050;51.316;5.994;2023-07-02T09:38:11;20.40;99.90
49224;DHT22;35050;51.316;5.994;2023-07-02T09:40:46;20.40;99.90
49224;DHT22;35050;51.316;5.994;2023-07-02T09:43:13;20.60;99.90
49224;DHT22;35050;51.316;5.994;2023-07-02T09:45:46;20.70;98.80
49224;DHT22;35050;51.316;5.994;2023-07-02T09:48:12;21.50;99.90
49224;DHT22;35050;51.316;5.994;2023-07-02T09:50:39;21.60;98.40
49224;DHT22;35050;51.316;5.994;2023-07-02T09:53:05;22.10;98.30
49224;DHT22;35050;51.316;5.994;2023-07-02T09:55:31;22.10;97.20
49224;DHT22;35050;51.316;5.994;2023-07-02T09:57:57;22.20;97.60
49224;DHT22;35050;51.316;5.994;2023-07-02T10:00:23;21.90;98.20
49224;DHT22;35050;51.316;5.994;2023-07-02T10:02:49;21.80;96.90
49224;DHT22;35050;51.316;5.994;2023-07-02T10:05:32;21.50;95.90
49224;DHT22;35050;51.316;5.994;2023-07-02T10:07:59;22.30;97.10
49224;DHT22;35050;51.316;5.994;2023-07-02T10:10:36;22.20;95.40
49224;DHT22;35050;51.316;5.994;2023-07-02T10:13:02;21.80;94.00
49224;DHT22;35050;51.316;5.994;2023-07-02T10:15:28;22.50;94.40
49224;DHT22;35050;51.316;5.994;2023-07-02T10:17:56;22.60;95.30
49224;DHT22;35050;51.316;5.994;2023-07-02T10:20:40;22.30;93.90
49224;DHT22;35050;51.316;5.994;2023-07-02T10:23:08;21.90;93.50
49224;DHT22;35050;51.316;5.994;2023-07-02T10:25:38;22.20;94.40
49224;DHT22;35050;51.316;5.994;2023-07-02T10:30:40;22.20;93.40
49224;DHT22;35050;51.316;5.994;2023-07-02T10:33:13;22.20;93.50
49224;DHT22;35050;51.316;5.994;2023-07-02T10:35:40;21.60;92.80
49224;DHT22;35050;51.316;5.994;2023-07-02T10:38:21;21.90;93.70
49224;DHT22;35050;51.316;5.994;2023-07-02T10:40:53;23.00;93.50
49224;DHT22;35050;51.316;5.994;2023-07-02T10:43:28;23.10;92.70
49224;DHT22;35050;51.316;5.994;2023-07-02T10:45:54;23.00;92.40
49224;DHT22;35050;51.316;5.994;2023-07-02T10:48:20;22.80;92.40
49224;DHT22;35050;51.316;5.994;2023-07-02T10:50:45;22.70;93.20
49224;DHT22;35050;51.316;5.994;2023-07-02T10:53:18;23.00;93.70
49224;DHT22;35050;51.316;5.994;2023-07-02T10:55:44;22.90;92.70
49224;DHT22;35050;51.316;5.994;2023-07-02T10:58:11;23.50;93.80
49224;DHT22;35050;51.316;5.994;2023-07-02T11:00:47;23.10;91.90
49224;DHT22;35050;51.316;5.994;2023-07-02T11:05:46;22.60;92.70
49224;DHT22;35050;51.316;5.994;2023-07-02T11:08:12;22.50;93.50
49224;DHT22;35050;51.316;5.994;2023-07-02T11:10:37;23.30;93.40
49224;DHT22;35050;51.316;5.994;2023-07-02T11:13:17;23.20;92.70
49224;DHT22;35050;51.316;5.994;2023-07-02T11:15:44;23.70;92.90
49224;DHT22;35050;51.316;5.994;2023-07-02T11:18:11;23.90;93.20
49224;DHT22;35050;51.316;5.994;2023-07-02T11:20:38;24.10;92.50
49224;DHT22;35050;51.316;5.994;2023-07-02T11:23:05;23.90;92.20
49224;DHT22;35050;51.316;5.994;2023-07-02T11:25:31;24.00;92.90
49224;DHT22;35050;51.316;5.994;2023-07-02T11:28:06;23.70;92.90
49224;DHT22;35050;51.316;5.994;2023-07-02T11:30:33;24.30;93.60
49224;DHT22;35050;51.316;5.994;2023-07-02T11:33:00;24.20;92.20
49224;DHT22;35050;51.316;5.994;2023-07-02T11:35:35;24.70;93.00
49224;DHT22;35050;51.316;5.994;2023-07-02T11:38:01;24.40;91.90
49224;DHT22;35050;51.316;5.994;2023-07-02T11:40:27;24.30;91.70
49224;DHT22;35050;51.316;5.994;2023-07-02T11:42:52;24.60;92.20
49224;DHT22;35050;51.316;5.994;2023-07-02T11:45:18;24.70;91.70
49224;DHT22;35050;51.316;5.994;2023-07-02T11:47:43;25.10;91.60
49224;DHT22;35050;51.316;5.994;2023-07-02T11:50:10;24.30;91.60
49224;DHT22;35050;51.316;5.994;2023-07-02T11:52:36;24.30;92.40
49224;DHT22;35050;51.316;5.994;2023-07-02T11:55:01;24.50;92.60
49224;DHT22;35050;51.316;5.994;2023-07-02T11:57:27;24.20;92.90
49224;DHT22;35050;51.316;5.994;2023-07-02T11:59:53;24.20;93.10
49224;DHT22;35050;51.316;5.994;2023-07-02T12:02:19;24.60;92.60
49224;DHT22;35050;51.316;5.994;2023-07-02T12:04:44;24.30;92.40
49224;DHT22;35050;51.316;5.994;2023-07-02T12:07:10;23.50;92.80
49224;DHT22;35050;51.316;5.994;2023-07-02T12:09:36;24.30;92.70
49224;DHT22;35050;51.316;5.994;2023-07-02T12:12:02;24.10;92.90
49224;DHT22;35050;51.316;5.994;2023-07-02T12:14:28;24.40;92.90
49224;DHT22;35050;51.316;5.994;2023-07-02T12:16:54;25.00;92.40
49224;DHT22;35050;51.316;5.994;2023-07-02T12:19:19;24.50;92.20
49224;DHT22;35050;51.316;5.994;2023-07-02T12:21:45;24.30;92.90
49224;DHT22;35050;51.316;5.994;2023-07-02T12:24:11;24.20;92.30
49224;DHT22;35050;51.316;5.994;2023-07-02T12:26:36;23.90;92.70
49224;DHT22;35050;51.316;5.994;2023-07-02T12:29:02;23.40;92.70
49224;DHT22;35050;51.316;5.994;2023-07-02T12:31:29;23.60;92.70
49224;DHT22;35050;51.316;5.994;2023-07-02T12:33:55;24.10;93.20
49224;DHT22;35050;51.316;5.994;2023-07-02T12:36:20;24.60;92.40
49224;DHT22;35050;51.316;5.994;2023-07-02T12:38:46;24.80;93.00
49224;DHT22;35050;51.316;5.994;2023-07-02T12:41:12;24.30;92.20
49224;DHT22;35050;51.316;5.994;2023-07-02T12:43:37;24.90;93.50
49224;DHT22;35050;51.316;5.994;2023-07-02T12:46:03;25.20;92.20
49224;DHT22;35050;51.316;5.994;2023-07-02T12:48:29;25.70;92.60
49224;DHT22;35050;51.316;5.994;2023-07-02T12:50:58;25.30;93.00
49224;DHT22;35050;51.316;5.994;2023-07-02T12:53:25;25.60;92.00
49224;DHT22;35050;51.316;5.994;2023-07-02T12:55:51;25.00;90.30
49224;DHT22;35050;51.316;5.994;2023-07-02T12:58:17;25.20;91.40
49224;DHT22;35050;51.316;5.994;2023-07-02T13:00:42;24.70;91.50
49224;DHT22;35050;51.316;5.994;2023-07-02T13:03:10;24.20;91.80
49224;DHT22;35050;51.316;5.994;2023-07-02T13:05:36;24.40;92.10
49224;DHT22;35050;51.316;5.994;2023-07-02T13:08:02;24.90;91.40
49224;DHT22;35050;51.316;5.994;2023-07-02T13:10:29;24.90;91.60
49224;DHT22;35050;51.316;5.994;2023-07-02T13:12:55;24.00;91.60
49224;DHT22;35050;51.316;5.994;2023-07-02T13:15:20;24.20;91.80
49224;DHT22;35050;51.316;5.994;2023-07-02T13:17:46;24.80;91.30
49224;DHT22;35050;51.316;5.994;2023-07-02T13:20:12;25.60;90.90
49224;DHT22;35050;51.316;5.994;2023-07-02T13:22:38;24.90;92.20
49224;DHT22;35050;51.316;5.994;2023-07-02T13:25:04;24.60;92.20
49224;DHT22;35050;51.316;5.994;2023-07-02T13:27:30;24.30;91.90
49224;DHT22;35050;51.316;5.994;2023-07-02T13:29:56;24.20;92.90
49224;DHT22;35050;51.316;5.994;2023-07-02T13:32:22;24.00;92.70
49224;DHT22;35050;51.316;5.994;2023-07-02T13:34:47;24.40;92.50
49224;DHT22;35050;51.316;5.994;2023-07-02T13:37:13;24.30;92.30
49224;DHT22;35050;51.316;5.994;2023-07-02T13:39:43;24.70;93.00
49224;DHT22;35050;51.316;5.994;2023-07-02T13:42:09;25.40;92.60
49224;DHT22;35050;51.316;5.994;2023-07-02T13:44:34;25.50;91.70
49224;DHT22;35050;51.316;5.994;2023-07-02T13:47:00;24.40;91.80
49224;DHT22;35050;51.316;5.994;2023-07-02T13:49:26;24.10;92.40
49224;DHT22;35050;51.316;5.994;2023-07-02T13:51:51;23.90;92.20
49224;DHT22;35050;51.316;5.994;2023-07-02T13:54:17;24.90;93.40
49224;DHT22;35050;51.316;5.994;2023-07-02T13:56:44;25.50;92.00
49224;DHT22;35050;51.316;5.994;2023-07-02T13:59:10;26.00;92.30
49224;DHT22;35050;51.316;5.994;2023-07-02T14:01:36;26.10;90.40
49224;DHT22;35050;51.316;5.994;2023-07-02T14:04:02;26.20;90.80
49224;DHT22;35050;51.316;5.994;2023-07-02T14:06:28;26.00;90.50
49224;DHT22;35050;51.316;5.994;2023-07-02T14:08:54;26.00;90.70
49224;DHT22;35050;51.316;5.994;2023-07-02T14:11:21;25.80;90.80
49224;DHT22;35050;51.316;5.994;2023-07-02T14:13:46;25.40;91.10
49224;DHT22;35050;51.316;5.994;2023-07-02T14:16:12;25.50;91.00
49224;DHT22;35050;51.316;5.994;2023-07-02T14:18:38;25.90;91.00
49224;DHT22;35050;51.316;5.994;2023-07-02T14:21:04;25.70;89.70
49224;DHT22;35050;51.316;5.994;2023-07-02T14:23:29;25.60;89.10
49224;DHT22;35050;51.316;5.994;2023-07-02T14:25:55;25.60;90.70
49224;DHT22;35050;51.316;5.994;2023-07-02T14:28:20;25.70;90.30
49224;DHT22;35050;51.316;5.994;2023-07-02T14:30:46;25.10;88.90
49224;DHT22;35050;51.316;5.994;2023-07-02T14:33:14;24.90;90.20
49224;DHT22;35050;51.316;5.994;2023-07-02T14:35:39;25.30;90.50
49224;DHT22;35050;51.316;5.994;2023-07-02T14:38:06;24.60;90.80
49224;DHT22;35050;51.316;5.994;2023-07-02T14:40:32;25.00;90.30
49224;DHT22;35050;51.316;5.994;2023-07-02T14:42:58;25.50;90.80
49224;DHT22;35050;51.316;5.994;2023-07-02T14:45:24;25.50;87.50
49224;DHT22;35050;51.316;5.994;2023-07-02T14:47:49;25.60;88.30
49224;DHT22;35050;51.316;5.994;2023-07-02T14:50:15;25.90;87.50
49224;DHT22;35050;51.316;5.994;2023-07-02T14:52:41;25.90;87.90
49224;DHT22;35050;51.316;5.994;2023-07-02T14:55:07;26.20;88.90
49224;DHT22;35050;51.316;5.994;2023-07-02T14:57:32;26.50;87.60
49224;DHT22;35050;51.316;5.994;2023-07-02T14:59:58;26.00;86.50
49224;DHT22;35050;51.316;5.994;2023-07-02T15:02:24;25.50;88.00
49224;DHT22;35050;51.316;5.994;2023-07-02T15:04:49;25.00;87.30
49224;DHT22;35050;51.316;5.994;2023-07-02T15:07:15;25.00;88.40
49224;DHT22;35050;51.316;5.994;2023-07-02T15:09:41;25.60;87.70
49224;DHT22;35050;51.316;5.994;2023-07-02T15:12:06;25.70;86.80
49224;DHT22;35050;51.316;5.994;2023-07-02T15:14:32;25.40;87.70
49224;DHT22;35050;51.316;5.994;2023-07-02T15:16:58;25.30;86.80
49224;DHT22;35050;51.316;5.994;2023-07-02T15:19:23;25.60;86.80
49224;DHT22;35050;51.316;5.994;2023-07-02T15:21:49;25.10;85.80
49224;DHT22;35050;51.316;5.994;2023-07-02T15:24:15;24.90;87.10
49224;DHT22;35050;51.316;5.994;2023-07-02T15:26:41;25.60;87.80
49224;DHT22;35050;51.316;5.994;2023-07-02T15:29:07;25.90;86.10
49224;DHT22;35050;51.316;5.994;2023-07-02T15:31:33;25.50;87.70